sensor_id;sensor_type;location;lat;lon;timestamp;P1;durP1;ratioP1;P2;durP2;ratioP2
48285;SDS011;34102;47.716;10.296;2022-11-20T06:30:54;3.83;;;1.73;;
48285;SDS011;34102;47.716;10.296;2022-11-20T06:33:19;2.55;;;1.73;;
48285;SDS011;34102;47.716;10.296;2022-11-20T06:35:45;4.23;;;1.83;;
48285;SDS011;34102;47.716;10.296;2022-11-20T06:38:10;2.10;;;1.60;;
48285;SDS011;34102;47.716;10.296;2022-11-20T06:40:35;5.50;;;1.77;;
48285;SDS011;34102;47.716;10.296;2022-11-20T06:43:00;2.30;;;1.80;;
48285;SDS011;34102;47.716;10.296;2022-11-20T06:45:26;4.80;;;1.73;;
48285;SDS011;34102;47.716;10.296;2022-11-20T06:47:51;3.72;;;1.63;;
48285;SDS011;34102;47.716;10.296;2022-11-20T06:50:17;2.00;;;1.50;;
48285;SDS011;34102;47.716;10.296;2022-11-20T06:52:42;2.80;;;1.80;;
48285;SDS011;34102;47.716;10.296;2022-11-20T06:55:07;2.85;;;1.83;;
48285;SDS011;34102;47.716;10.296;2022-11-20T06:57:33;3.30;;;2.22;;
48285;SDS011;34102;47.716;10.296;2022-11-20T06:59:58;2.47;;;1.73;;
48285;SDS011;34102;47.716;10.296;2022-11-20T07:02:23;2.20;;;1.63;;
48285;SDS011;34102;47.716;10.296;2022-11-20T07:04:48;4.47;;;1.98;;
48285;SDS011;34102;47.716;10.296;2022-11-20T07:07:14;3.05;;;2.55;;
48285;SDS011;34102;47.716;10.296;2022-11-20T07:09:39;3.78;;;2.08;;
48285;SDS011;34102;47.716;10.296;2022-11-20T07:12:04;4.70;;;2.67;;
48285;SDS011;34102;47.716;10.296;2022-11-20T07:14:30;3.65;;;2.10;;
48285;SDS011;34102;47.716;10.296;2022-11-20T07:16:55;4.13;;;1.90;;
48285;SDS011;34102;47.716;10.296;2022-11-20T07:19:20;3.10;;;2.15;;
48285;SDS011;34102;47.716;10.296;2022-11-20T07:21:45;3.70;;;2.20;;
48285;SDS011;34102;47.716;10.296;2022-11-20T07:24:11;3.17;;;2.38;;
48285;SDS011;34102;47.716;10.296;2022-11-20T07:26:36;3.70;;;1.77;;
48285;SDS011;34102;47.716;10.296;2022-11-20T07:29:01;4.88;;;2.20;;
48285;SDS011;34102;47.716;10.296;2022-11-20T07:31:26;2.97;;;1.90;;
48285;SDS011;34102;47.716;10.296;2022-11-20T07:33:52;5.70;;;1.92;;
48285;SDS011;34102;47.716;10.296;2022-11-20T07:36:17;3.35;;;2.28;;
48285;SDS011;34102;47.716;10.296;2022-11-20T07:38:42;2.25;;;1.73;;
48285;SDS011;34102;47.716;10.296;2022-11-20T07:41:07;5.50;;;2.20;;
48285;SDS011;34102;47.716;10.296;2022-11-20T07:43:33;4.10;;;2.10;;
48285;SDS011;34102;47.716;10.296;2022-11-20T07:45:58;6.20;;;2.78;;
48285;SDS011;34102;47.716;10.296;2022-11-20T07:48:24;4.15;;;1.98;;
48285;SDS011;34102;47.716;10.296;2022-11-20T07:50:52;3.33;;;1.67;;
48285;SDS011;34102;47.716;10.296;2022-11-20T07:53:17;4.88;;;1.65;;
48285;SDS011;34102;47.716;10.296;2022-11-20T07:55:45;2.78;;;1.70;;
48285;SDS011;34102;47.716;10.296;2022-11-20T07:58:11;3.65;;;2.28;;
48285;SDS011;34102;47.716;10.296;2022-11-20T08:00:36;7.00;;;4.00;;
48285;SDS011;34102;47.716;10.296;2022-11-20T08:03:04;4.70;;;2.47;;
48285;SDS011;34102;47.716;10.296;2022-11-20T08:05:30;3.38;;;2.22;;
48285;SDS011;34102;47.716;10.296;2022-11-20T08:07:55;3.10;;;1.73;;
48285;SDS011;34102;47.716;10.296;2022-11-20T08:10:20;2.38;;;1.48;;
48285;SDS011;34102;47.716;10.296;2022-11-20T08:12:46;3.78;;;1.48;;
48285;SDS011;34102;47.716;10.296;2022-11-20T08:15:31;2.45;;;1.63;;
48285;SDS011;34102;47.716;10.296;2022-11-20T08:18:16;2.58;;;1.60;;
48285;SDS011;34102;47.716;10.296;2022-11-20T08:20:42;3.33;;;1.45;;
48285;SDS011;34102;47.716;10.296;2022-11-20T08:23:07;3.53;;;2.00;;
48285;SDS011;34102;47.716;10.296;2022-11-20T08:25:33;3.05;;;1.60;;
48285;SDS011;34102;47.716;10.296;2022-11-20T08:27:59;3.05;;;1.40;;
48285;SDS011;34102;47.716;10.296;2022-11-20T08:30:25;2.42;;;1.50;;
48285;SDS011;34102;47.716;10.296;2022-11-20T08:32:50;2.53;;;1.27;;
48285;SDS011;34102;47.716;10.296;2022-11-20T08:35:15;2.90;;;2.00;;
48285;SDS011;34102;47.716;10.296;2022-11-20T08:37:40;2.22;;;1.50;;
48285;SDS011;34102;47.716;10.296;2022-11-20T08:40:08;2.75;;;1.35;;
48285;SDS011;34102;47.716;10.296;2022-11-20T08:42:36;4.80;;;1.67;;
48285;SDS011;34102;47.716;10.296;2022-11-20T08:45:01;3.08;;;1.77;;
48285;SDS011;34102;47.716;10.296;2022-11-20T08:47:26;5.40;;;1.98;;
48285;SDS011;34102;47.716;10.296;2022-11-20T08:49:51;3.50;;;1.60;;
48285;SDS011;34102;47.716;10.296;2022-11-20T08:52:17;1.70;;;1.08;;
48285;SDS011;34102;47.716;10.296;2022-11-20T08:54:42;2.40;;;1.40;;
48285;SDS011;34102;47.716;10.296;2022-11-20T08:57:07;3.88;;;1.70;;
48285;SDS011;34102;47.716;10.296;2022-11-20T08:59:33;2.25;;;1.50;;
48285;SDS011;34102;47.716;10.296;2022-11-20T09:01:58;6.78;;;1.65;;
48285;SDS011;34102;47.716;10.296;2022-11-20T09:04:23;2.03;;;1.40;;
48285;SDS011;34102;47.716;10.296;2022-11-20T09:06:49;2.78;;;1.80;;
48285;SDS011;34102;47.716;10.296;2022-11-20T09:09:16;4.00;;;1.58;;
48285;SDS011;34102;47.716;10.296;2022-11-20T09:11:41;2.38;;;1.67;;
48285;SDS011;34102;47.716;10.296;2022-11-20T09:14:06;2.53;;;1.85;;
48285;SDS011;34102;47.716;10.296;2022-11-20T09:16:32;3.03;;;2.15;;
48285;SDS011;34102;47.716;10.296;2022-11-20T09:18:57;2.75;;;1.60;;
48285;SDS011;34102;47.716;10.296;2022-11-20T09:21:22;3.05;;;1.60;;
48285;SDS011;34102;47.716;10.296;2022-11-20T09:23:48;4.43;;;1.48;;
48285;SDS011;34102;47.716;10.296;2022-11-20T09:26:13;2.17;;;1.40;;
48285;SDS011;34102;47.716;10.296;2022-11-20T09:28:39;1.83;;;1.20;;
48285;SDS011;34102;47.716;10.296;2022-11-20T09:31:23;1.73;;;1.10;;
48285;SDS011;34102;47.716;10.296;2022-11-20T09:33:49;2.00;;;1.37;;
48285;SDS011;34102;47.716;10.296;2022-11-20T09:36:14;2.88;;;1.30;;
48285;SDS011;34102;47.716;10.296;2022-11-20T09:38:40;2.75;;;1.30;;
48285;SDS011;34102;47.716;10.296;2022-11-20T09:41:06;1.95;;;0.98;;
48285;SDS011;34102;47.716;10.296;2022-11-20T09:46:43;5.28;;;1.45;;
48285;SDS011;34102;47.716;10.296;2022-11-20T09:54:06;2.25;;;0.88;;
48285;SDS011;34102;47.716;10.296;2022-11-20T09:56:33;3.72;;;1.13;;
48285;SDS011;34102;47.716;10.296;2022-11-20T09:58:59;2.17;;;1.00;;
48285;SDS011;34102;47.716;10.296;2022-11-20T10:01:29;1.40;;;0.82;;
48285;SDS011;34102;47.716;10.296;2022-11-20T10:04:00;1.15;;;0.70;;
48285;SDS011;34102;47.716;10.296;2022-11-20T10:06:37;1.55;;;0.73;;
48285;SDS011;34102;47.716;10.296;2022-11-20T10:17:49;1.60;;;0.90;;
48285;SDS011;34102;47.716;10.296;2022-11-20T10:19:54;2.03;;;1.00;;
48285;SDS011;34102;47.716;10.296;2022-11-20T10:24:56;1.98;;;0.88;;
48285;SDS011;34102;47.716;10.296;2022-11-20T10:30:16;2.63;;;1.00;;
48285;SDS011;34102;47.716;10.296;2022-11-20T10:32:46;1.75;;;0.90;;
48285;SDS011;34102;47.716;10.296;2022-11-20T10:35:20;2.63;;;0.90;;
48285;SDS011;34102;47.716;10.296;2022-11-20T10:37:49;2.35;;;0.98;;
48285;SDS011;34102;47.716;10.296;2022-11-20T10:42:48;1.92;;;1.10;;
48285;SDS011;34102;47.716;10.296;2022-11-20T10:47:51;2.35;;;1.20;;
48285;SDS011;34102;47.716;10.296;2022-11-20T10:50:19;4.35;;;1.17;;
48285;SDS011;34102;47.716;10.296;2022-11-20T11:00:20;1.80;;;1.00;;
48285;SDS011;34102;47.716;10.296;2022-11-20T11:02:47;1.15;;;1.00;;
48285;SDS011;34102;47.716;10.296;2022-11-20T11:07:45;1.70;;;0.88;;
48285;SDS011;34102;47.716;10.296;2022-11-20T11:13:05;1.83;;;0.80;;
48285;SDS011;34102;47.716;10.296;2022-11-20T11:15:38;1.45;;;0.88;;
48285;SDS011;34102;47.716;10.296;2022-11-20T11:18:03;1.23;;;0.80;;
48285;SDS011;34102;47.716;10.296;2022-11-20T11:20:29;2.15;;;0.80;;
48285;SDS011;34102;47.716;10.296;2022-11-20T11:22:58;2.88;;;1.20;;
48285;SDS011;34102;47.716;10.296;2022-11-20T11:27:51;2.00;;;1.10;;
48285;SDS011;34102;47.716;10.296;2022-11-20T11:30:17;1.58;;;0.73;;
48285;SDS011;34102;47.716;10.296;2022-11-20T11:32:44;1.80;;;0.60;;
48285;SDS011;34102;47.716;10.296;2022-11-20T11:37:47;2.75;;;1.08;;
48285;SDS011;34102;47.716;10.296;2022-11-20T11:45:17;3.03;;;1.50;;
48285;SDS011;34102;47.716;10.296;2022-11-20T11:52:56;1.30;;;0.70;;
48285;SDS011;34102;47.716;10.296;2022-11-20T11:55:36;1.55;;;0.88;;
48285;SDS011;34102;47.716;10.296;2022-11-20T11:58:16;3.38;;;1.33;;
48285;SDS011;34102;47.716;10.296;2022-11-20T12:00:49;4.53;;;1.85;;
48285;SDS011;34102;47.716;10.296;2022-11-20T12:03:21;3.30;;;1.63;;
48285;SDS011;34102;47.716;10.296;2022-11-20T12:05:54;2.20;;;0.90;;
48285;SDS011;34102;47.716;10.296;2022-11-20T12:08:32;1.23;;;0.80;;
48285;SDS011;34102;47.716;10.296;2022-11-20T12:13:48;2.75;;;0.80;;
48285;SDS011;34102;47.716;10.296;2022-11-20T12:16:17;2.10;;;1.40;;
48285;SDS011;34102;47.716;10.296;2022-11-20T12:18:44;1.85;;;0.82;;
48285;SDS011;34102;47.716;10.296;2022-11-20T12:21:23;1.55;;;0.80;;
48285;SDS011;34102;47.716;10.296;2022-11-20T12:26:45;1.77;;;0.60;;
48285;SDS011;34102;47.716;10.296;2022-11-20T12:29:37;1.55;;;1.05;;
48285;SDS011;34102;47.716;10.296;2022-11-20T12:34:47;1.98;;;0.90;;
48285;SDS011;34102;47.716;10.296;2022-11-20T12:37:27;2.47;;;1.00;;
48285;SDS011;34102;47.716;10.296;2022-11-20T12:39:58;1.05;;;0.68;;
48285;SDS011;34102;47.716;10.296;2022-11-20T12:42:30;1.85;;;0.70;;
48285;SDS011;34102;47.716;10.296;2022-11-20T12:45:34;2.67;;;1.05;;
48285;SDS011;34102;47.716;10.296;2022-11-20T12:48:09;0.90;;;0.50;;
48285;SDS011;34102;47.716;10.296;2022-11-20T13:06:44;0.90;;;0.60;;
48285;SDS011;34102;47.716;10.296;2022-11-20T13:09:11;2.80;;;0.88;;
48285;SDS011;34102;47.716;10.296;2022-11-20T13:19:13;2.37;;;0.90;;
48285;SDS011;34102;47.716;10.296;2022-11-20T13:24:20;1.67;;;0.90;;
48285;SDS011;34102;47.716;10.296;2022-11-20T13:29:26;2.03;;;1.35;;
48285;SDS011;34102;47.716;10.296;2022-11-20T13:32:00;1.45;;;1.00;;
48285;SDS011;34102;47.716;10.296;2022-11-20T13:34:27;1.17;;;0.80;;
48285;SDS011;34102;47.716;10.296;2022-11-20T13:36:54;1.55;;;0.90;;
48285;SDS011;34102;47.716;10.296;2022-11-20T13:41:55;1.40;;;0.70;;
48285;SDS011;34102;47.716;10.296;2022-11-20T13:44:25;1.17;;;0.60;;
48285;SDS011;34102;47.716;10.296;2022-11-20T13:46:51;2.20;;;0.77;;
48285;SDS011;34102;47.716;10.296;2022-11-20T13:49:27;2.15;;;0.65;;
48285;SDS011;34102;47.716;10.296;2022-11-20T14:02:18;1.90;;;0.77;;
48285;SDS011;34102;47.716;10.296;2022-11-20T14:04:48;2.40;;;0.90;;
48285;SDS011;34102;47.716;10.296;2022-11-20T14:07:14;2.00;;;0.85;;
48285;SDS011;34102;47.716;10.296;2022-11-20T14:09:48;3.33;;;1.60;;
48285;SDS011;34102;47.716;10.296;2022-11-20T14:12:17;1.83;;;0.98;;
48285;SDS011;34102;47.716;10.296;2022-11-20T14:14:53;4.35;;;2.15;;
48285;SDS011;34102;47.716;10.296;2022-11-20T14:17:19;2.00;;;1.23;;
48285;SDS011;34102;47.716;10.296;2022-11-20T14:19:45;1.67;;;0.90;;
48285;SDS011;34102;47.716;10.296;2022-11-20T14:22:19;1.80;;;0.93;;
48285;SDS011;34102;47.716;10.296;2022-11-20T14:24:45;2.70;;;1.00;;
48285;SDS011;34102;47.716;10.296;2022-11-20T14:27:14;3.92;;;0.95;;
48285;SDS011;34102;47.716;10.296;2022-11-20T14:29:40;1.48;;;0.75;;
48285;SDS011;34102;47.716;10.296;2022-11-20T14:32:08;1.77;;;0.57;;
48285;SDS011;34102;47.716;10.296;2022-11-20T14:34:40;2.30;;;0.93;;
48285;SDS011;34102;47.716;10.296;2022-11-20T14:37:09;2.00;;;0.82;;
48285;SDS011;34102;47.716;10.296;2022-11-20T14:39:36;2.17;;;0.60;;
48285;SDS011;34102;47.716;10.296;2022-11-20T14:42:03;1.15;;;0.52;;
48285;SDS011;34102;47.716;10.296;2022-11-20T14:44:32;2.08;;;0.80;;
48285;SDS011;34102;47.716;10.296;2022-11-20T14:46:58;1.58;;;0.80;;
48285;SDS011;34102;47.716;10.296;2022-11-20T14:49:24;1.70;;;0.75;;
48285;SDS011;34102;47.716;10.296;2022-11-20T14:51:58;1.80;;;0.80;;
48285;SDS011;34102;47.716;10.296;2022-11-20T14:54:23;1.48;;;0.57;;
48285;SDS011;34102;47.716;10.296;2022-11-20T14:56:54;1.90;;;1.05;;
48285;SDS011;34102;47.716;10.296;2022-11-20T14:59:26;2.65;;;1.27;;
48285;SDS011;34102;47.716;10.296;2022-11-20T15:04:48;3.95;;;2.00;;
48285;SDS011;34102;47.716;10.296;2022-11-20T15:07:23;4.45;;;1.60;;
48285;SDS011;34102;47.716;10.296;2022-11-20T15:09:58;1.65;;;1.08;;
48285;SDS011;34102;47.716;10.296;2022-11-20T15:14:49;1.90;;;1.10;;
48285;SDS011;34102;47.716;10.296;2022-11-20T15:17:14;1.58;;;0.90;;
48285;SDS011;34102;47.716;10.296;2022-11-20T15:19:40;1.25;;;0.75;;
48285;SDS011;34102;47.716;10.296;2022-11-20T15:22:07;7.30;;;1.92;;
48285;SDS011;34102;47.716;10.296;2022-11-20T15:24:34;2.25;;;1.15;;
48285;SDS011;34102;47.716;10.296;2022-11-20T15:26:59;4.20;;;1.58;;
48285;SDS011;34102;47.716;10.296;2022-11-20T15:29:25;7.25;;;1.52;;
48285;SDS011;34102;47.716;10.296;2022-11-20T15:31:50;3.83;;;1.98;;
48285;SDS011;34102;47.716;10.296;2022-11-20T15:34:17;4.18;;;2.20;;
48285;SDS011;34102;47.716;10.296;2022-11-20T15:36:43;7.38;;;4.50;;
48285;SDS011;34102;47.716;10.296;2022-11-20T15:39:08;3.60;;;1.55;;
48285;SDS011;34102;47.716;10.296;2022-11-20T15:41:34;4.13;;;1.60;;
48285;SDS011;34102;47.716;10.296;2022-11-20T15:44:00;4.15;;;2.08;;
48285;SDS011;34102;47.716;10.296;2022-11-20T15:46:29;4.85;;;2.83;;
48285;SDS011;34102;47.716;10.296;2022-11-20T15:48:55;7.85;;;3.90;;
48285;SDS011;34102;47.716;10.296;2022-11-20T15:51:26;6.88;;;3.40;;
48285;SDS011;34102;47.716;10.296;2022-11-20T15:53:52;3.58;;;2.17;;
48285;SDS011;34102;47.716;10.296;2022-11-20T15:56:17;6.28;;;2.45;;
48285;SDS011;34102;47.716;10.296;2022-11-20T15:58:42;5.05;;;3.10;;
48285;SDS011;34102;47.716;10.296;2022-11-20T16:01:11;3.03;;;1.63;;
48285;SDS011;34102;47.716;10.296;2022-11-20T16:03:37;4.10;;;1.77;;
48285;SDS011;34102;47.716;10.296;2022-11-20T16:06:05;3.65;;;1.60;;
48285;SDS011;34102;47.716;10.296;2022-11-20T16:08:30;1.88;;;1.17;;
48285;SDS011;34102;47.716;10.296;2022-11-20T16:10:55;3.47;;;1.80;;
48285;SDS011;34102;47.716;10.296;2022-11-20T16:13:21;3.25;;;1.80;;
48285;SDS011;34102;47.716;10.296;2022-11-20T16:16:11;6.95;;;4.85;;
48285;SDS011;34102;47.716;10.296;2022-11-20T16:18:43;8.07;;;4.65;;
48285;SDS011;34102;47.716;10.296;2022-11-20T16:21:10;17.83;;;11.10;;
48285;SDS011;34102;47.716;10.296;2022-11-20T16:23:35;13.45;;;8.30;;
48285;SDS011;34102;47.716;10.296;2022-11-20T16:28:56;8.60;;;5.00;;
48285;SDS011;34102;47.716;10.296;2022-11-20T16:31:21;9.30;;;4.50;;
48285;SDS011;34102;47.716;10.296;2022-11-20T16:33:53;6.60;;;4.53;;
48285;SDS011;34102;47.716;10.296;2022-11-20T16:36:19;9.25;;;5.18;;
48285;SDS011;34102;47.716;10.296;2022-11-20T16:38:45;8.35;;;5.50;;
48285;SDS011;34102;47.716;10.296;2022-11-20T16:41:11;7.78;;;4.95;;
48285;SDS011;34102;47.716;10.296;2022-11-20T16:43:43;9.57;;;5.82;;
48285;SDS011;34102;47.716;10.296;2022-11-20T16:46:09;8.65;;;3.80;;
48285;SDS011;34102;47.716;10.296;2022-11-20T16:48:34;10.32;;;5.75;;
48285;SDS011;34102;47.716;10.296;2022-11-20T16:50:59;5.97;;;4.18;;
48285;SDS011;34102;47.716;10.296;2022-11-20T16:53:24;8.23;;;4.05;;
48285;SDS011;34102;47.716;10.296;2022-11-20T16:55:50;6.22;;;4.30;;
48285;SDS011;34102;47.716;10.296;2022-11-20T16:58:15;7.22;;;4.57;;
48285;SDS011;34102;47.716;10.296;2022-11-20T17:00:40;7.53;;;4.65;;
48285;SDS011;34102;47.716;10.296;2022-11-20T17:03:06;6.72;;;3.95;;
48285;SDS011;34102;47.716;10.296;2022-11-20T17:05:31;7.38;;;4.95;;
48285;SDS011;34102;47.716;10.296;2022-11-20T17:07:57;7.50;;;5.10;;
48285;SDS011;34102;47.716;10.296;2022-11-20T17:10:22;8.25;;;5.43;;
48285;SDS011;34102;47.716;10.296;2022-11-20T17:12:48;7.32;;;5.28;;
48285;SDS011;34102;47.716;10.296;2022-11-20T17:15:13;19.15;;;10.70;;
48285;SDS011;34102;47.716;10.296;2022-11-20T17:17:41;9.93;;;6.07;;
48285;SDS011;34102;47.716;10.296;2022-11-20T17:20:07;12.00;;;6.32;;
48285;SDS011;34102;47.716;10.296;2022-11-20T17:22:35;11.93;;;7.50;;
48285;SDS011;34102;47.716;10.296;2022-11-20T17:25:00;9.73;;;6.00;;
48285;SDS011;34102;47.716;10.296;2022-11-20T17:27:26;6.07;;;4.40;;
48285;SDS011;34102;47.716;10.296;2022-11-20T17:29:51;7.30;;;4.78;;
48285;SDS011;34102;47.716;10.296;2022-11-20T17:32:19;6.80;;;4.15;;
48285;SDS011;34102;47.716;10.296;2022-11-20T17:34:48;7.40;;;4.45;;
48285;SDS011;34102;47.716;10.296;2022-11-20T17:37:13;8.52;;;4.15;;
48285;SDS011;34102;47.716;10.296;2022-11-20T17:39:44;10.63;;;6.78;;
48285;SDS011;34102;47.716;10.296;2022-11-20T17:42:12;10.13;;;6.00;;
48285;SDS011;34102;47.716;10.296;2022-11-20T17:45:00;9.07;;;5.18;;
48285;SDS011;34102;47.716;10.296;2022-11-20T17:47:26;17.73;;;9.48;;
48285;SDS011;34102;47.716;10.296;2022-11-20T17:49:54;21.05;;;12.75;;
48285;SDS011;34102;47.716;10.296;2022-11-20T17:52:19;20.73;;;10.25;;
48285;SDS011;34102;47.716;10.296;2022-11-20T17:54:48;26.63;;;13.98;;
48285;SDS011;34102;47.716;10.296;2022-11-20T17:57:13;23.17;;;13.68;;
48285;SDS011;34102;47.716;10.296;2022-11-20T17:59:57;18.13;;;10.82;;
48285;SDS011;34102;47.716;10.296;2022-11-20T18:02:23;18.63;;;9.98;;
48285;SDS011;34102;47.716;10.296;2022-11-20T18:04:49;15.00;;;7.82;;
48285;SDS011;34102;47.716;10.296;2022-11-20T18:07:14;15.73;;;7.95;;
48285;SDS011;34102;47.716;10.296;2022-11-20T18:09:39;9.18;;;4.63;;
48285;SDS011;34102;47.716;10.296;2022-11-20T18:12:07;13.38;;;7.43;;
48285;SDS011;34102;47.716;10.296;2022-11-20T18:14:32;18.77;;;10.38;;
48285;SDS011;34102;47.716;10.296;2022-11-20T18:19:26;6.90;;;3.83;;
48285;SDS011;34102;47.716;10.296;2022-11-20T18:21:51;6.15;;;3.45;;
48285;SDS011;34102;47.716;10.296;2022-11-20T18:24:17;4.25;;;2.08;;
48285;SDS011;34102;47.716;10.296;2022-11-20T18:26:42;3.42;;;1.08;;
48285;SDS011;34102;47.716;10.296;2022-11-20T18:29:08;1.65;;;0.77;;
48285;SDS011;34102;47.716;10.296;2022-11-20T18:31:33;3.92;;;1.70;;
48285;SDS011;34102;47.716;10.296;2022-11-20T18:33:58;2.40;;;1.30;;
48285;SDS011;34102;47.716;10.296;2022-11-20T18:36:24;5.40;;;1.50;;
48285;SDS011;34102;47.716;10.296;2022-11-20T18:38:50;5.18;;;1.63;;
48285;SDS011;34102;47.716;10.296;2022-11-20T18:41:16;3.72;;;1.50;;
48285;SDS011;34102;47.716;10.296;2022-11-20T18:44:01;2.78;;;1.80;;
48285;SDS011;34102;47.716;10.296;2022-11-20T18:46:45;2.93;;;1.67;;
48285;SDS011;34102;47.716;10.296;2022-11-20T18:49:10;3.88;;;1.65;;
48285;SDS011;34102;47.716;10.296;2022-11-20T18:51:36;2.65;;;1.38;;
48285;SDS011;34102;47.716;10.296;2022-11-20T18:54:02;4.65;;;1.60;;
48285;SDS011;34102;47.716;10.296;2022-11-20T18:56:27;2.22;;;1.17;;
48285;SDS011;34102;47.716;10.296;2022-11-20T18:58:53;2.53;;;1.27;;
48285;SDS011;34102;47.716;10.296;2022-11-20T19:01:18;1.65;;;0.82;;
48285;SDS011;34102;47.716;10.296;2022-11-20T19:03:43;1.20;;;0.90;;
48285;SDS011;34102;47.716;10.296;2022-11-20T19:06:12;2.55;;;1.75;;
48285;SDS011;34102;47.716;10.296;2022-11-20T19:08:37;2.33;;;1.23;;
48285;SDS011;34102;47.716;10.296;2022-11-20T19:11:06;11.68;;;6.35;;
48285;SDS011;34102;47.716;10.296;2022-11-20T19:13:32;2.65;;;1.42;;
48285;SDS011;34102;47.716;10.296;2022-11-20T19:16:00;3.50;;;0.75;;
48285;SDS011;34102;47.716;10.296;2022-11-20T19:18:26;1.63;;;0.90;;
48285;SDS011;34102;47.716;10.296;2022-11-20T19:20:52;2.75;;;1.45;;
48285;SDS011;34102;47.716;10.296;2022-11-20T19:23:17;4.00;;;1.80;;
48285;SDS011;34102;47.716;10.296;2022-11-20T19:25:45;3.75;;;1.63;;
48285;SDS011;34102;47.716;10.296;2022-11-20T19:28:11;4.45;;;1.73;;
48285;SDS011;34102;47.716;10.296;2022-11-20T19:30:36;3.65;;;2.22;;
48285;SDS011;34102;47.716;10.296;2022-11-20T19:33:01;6.30;;;3.37;;
48285;SDS011;34102;47.716;10.296;2022-11-20T19:35:26;2.63;;;1.42;;
48285;SDS011;34102;47.716;10.296;2022-11-20T19:37:52;2.47;;;1.42;;
48285;SDS011;34102;47.716;10.296;2022-11-20T19:40:17;2.55;;;1.33;;
48285;SDS011;34102;47.716;10.296;2022-11-20T19:42:42;2.67;;;1.50;;
48285;SDS011;34102;47.716;10.296;2022-11-20T19:45:08;2.50;;;1.38;;
48285;SDS011;34102;47.716;10.296;2022-11-20T19:47:33;4.88;;;2.25;;
48285;SDS011;34102;47.716;10.296;2022-11-20T19:49:58;1.75;;;1.00;;
48285;SDS011;34102;47.716;10.296;2022-11-20T19:52:23;2.17;;;0.90;;
48285;SDS011;34102;47.716;10.296;2022-11-20T19:54:50;1.95;;;1.30;;
48285;SDS011;34102;47.716;10.296;2022-11-20T19:57:15;2.22;;;0.73;;
48285;SDS011;34102;47.716;10.296;2022-11-20T19:59:40;1.92;;;0.80;;
48285;SDS011;34102;47.716;10.296;2022-11-20T20:02:07;1.60;;;0.80;;
48285;SDS011;34102;47.716;10.296;2022-11-20T20:04:33;1.50;;;0.85;;
48285;SDS011;34102;47.716;10.296;2022-11-20T20:06:58;2.53;;;1.00;;
48285;SDS011;34102;47.716;10.296;2022-11-20T20:09:24;1.13;;;0.55;;
48285;SDS011;34102;47.716;10.296;2022-11-20T20:11:53;5.07;;;0.82;;
48285;SDS011;34102;47.716;10.296;2022-11-20T20:14:18;2.45;;;1.05;;
48285;SDS011;34102;47.716;10.296;2022-11-20T20:16:44;2.78;;;1.20;;
48285;SDS011;34102;47.716;10.296;2022-11-20T20:19:13;4.55;;;2.00;;
48285;SDS011;34102;47.716;10.296;2022-11-20T20:21:38;3.85;;;1.63;;
48285;SDS011;34102;47.716;10.296;2022-11-20T20:24:05;3.22;;;1.40;;
48285;SDS011;34102;47.716;10.296;2022-11-20T20:26:30;1.67;;;0.88;;
48285;SDS011;34102;47.716;10.296;2022-11-20T20:28:56;1.85;;;0.90;;
48285;SDS011;34102;47.716;10.296;2022-11-20T20:31:22;1.48;;;0.70;;
48285;SDS011;34102;47.716;10.296;2022-11-20T20:33:48;1.25;;;0.60;;
48285;SDS011;34102;47.716;10.296;2022-11-20T20:36:14;3.20;;;1.00;;
48285;SDS011;34102;47.716;10.296;2022-11-20T20:38:40;2.13;;;1.05;;
48285;SDS011;34102;47.716;10.296;2022-11-20T20:41:06;1.33;;;0.80;;
48285;SDS011;34102;47.716;10.296;2022-11-20T20:43:31;2.22;;;0.70;;
48285;SDS011;34102;47.716;10.296;2022-11-20T20:46:16;3.00;;;1.35;;
48285;SDS011;34102;47.716;10.296;2022-11-20T20:48:42;1.55;;;0.75;;
48285;SDS011;34102;47.716;10.296;2022-11-20T20:51:07;2.75;;;0.80;;
48285;SDS011;34102;47.716;10.296;2022-11-20T20:53:33;3.67;;;1.10;;
48285;SDS011;34102;47.716;10.296;2022-11-20T20:55:59;1.13;;;0.73;;
48285;SDS011;34102;47.716;10.296;2022-11-20T20:58:25;1.50;;;0.98;;
48285;SDS011;34102;47.716;10.296;2022-11-20T21:00:50;1.48;;;0.65;;
48285;SDS011;34102;47.716;10.296;2022-11-20T21:03:16;1.67;;;0.88;;
48285;SDS011;34102;47.716;10.296;2022-11-20T21:05:42;1.50;;;0.90;;
48285;SDS011;34102;47.716;10.296;2022-11-20T21:08:07;1.23;;;0.82;;
48285;SDS011;34102;47.716;10.296;2022-11-20T21:10:49;1.75;;;0.85;;
48285;SDS011;34102;47.716;10.296;2022-11-20T21:13:14;1.23;;;0.88;;
48285;SDS011;34102;47.716;10.296;2022-11-20T21:15:40;1.10;;;0.80;;
48285;SDS011;34102;47.716;10.296;2022-11-20T21:18:06;1.70;;;0.98;;
48285;SDS011;34102;47.716;10.296;2022-11-20T21:20:31;1.23;;;0.68;;
48285;SDS011;34102;47.716;10.296;2022-11-20T21:23:15;1.40;;;0.85;;
48285;SDS011;34102;47.716;10.296;2022-11-20T21:25:40;1.10;;;0.70;;
48285;SDS011;34102;47.716;10.296;2022-11-20T21:28:06;1.48;;;0.80;;
